createdAt,value
2022-11-15T00:00:16.727Z,19.63
2022-11-15T00:05:21.735Z,18.73
2022-11-15T00:10:26.828Z,25.13
2022-11-15T00:15:34.415Z,24.05
2022-11-15T00:20:39.432Z,16.85
2022-11-15T00:25:44.517Z,18.50
2022-11-15T00:30:52.085Z,19.25
2022-11-15T00:35:58.301Z,14.27
2022-11-15T00:41:07.898Z,17.48
2022-11-15T00:46:17.172Z,15.60
2022-11-15T00:51:22.188Z,15.70
2022-11-15T00:56:27.172Z,17.33
2022-11-15T01:01:34.801Z,17.13
2022-11-15T01:06:39.796Z,16.45
2022-11-15T01:11:44.829Z,18.75
2022-11-15T01:16:52.420Z,15.82
2022-11-15T01:21:57.513Z,15.98
2022-11-15T01:27:02.515Z,17.02
2022-11-15T01:32:10.208Z,17.60
2022-11-15T01:37:15.260Z,18.88
2022-11-15T01:42:20.676Z,19.08
2022-11-15T01:47:30.296Z,18.42
2022-11-15T01:52:36.864Z,14.50
2022-11-15T01:57:42.277Z,14.40
2022-11-15T02:02:49.964Z,15.60
2022-11-15T02:07:55.575Z,16.85
2022-11-15T02:13:01.400Z,14.60
2022-11-15T02:18:15.638Z,15.90
2022-11-15T02:23:39.893Z,16.13
2022-11-15T02:28:49.817Z,14.90
2022-11-15T02:34:00.544Z,13.68
2022-11-15T02:39:10.233Z,13.43
2022-11-15T02:44:21.073Z,12.17
2022-11-15T02:49:29.538Z,11.63
2022-11-15T02:54:36.337Z,12.10
2022-11-15T03:00:07.262Z,10.60
2022-11-15T03:05:21.627Z,13.00
2022-11-15T03:10:30.265Z,11.13
2022-11-15T03:15:37.896Z,13.10
2022-11-15T03:20:46.819Z,11.77
2022-11-15T03:25:53.274Z,10.65
2022-11-15T03:30:59.264Z,12.18
2022-11-15T03:36:07.287Z,13.25
2022-11-15T03:41:17.363Z,10.93
2022-11-15T03:46:28.618Z,9.68
2022-11-15T03:51:36.465Z,6.88
2022-11-15T03:56:41.446Z,7.72
2022-11-15T04:01:46.492Z,11.38
2022-11-15T04:06:54.112Z,9.98
2022-11-15T04:11:59.106Z,10.45
2022-11-15T04:17:04.126Z,8.43
2022-11-15T04:22:24.278Z,8.75
2022-11-15T04:27:29.254Z,7.00
2022-11-15T04:32:34.233Z,6.78
2022-11-15T04:37:46.401Z,7.13
2022-11-15T04:42:54.903Z,7.90
2022-11-15T04:48:01.357Z,9.15
2022-11-15T04:53:09.012Z,7.63
2022-11-15T04:58:14.019Z,8.98
2022-11-15T05:03:31.578Z,7.32
2022-11-15T05:08:39.479Z,7.10
2022-11-15T05:13:44.477Z,7.13
2022-11-15T05:18:49.559Z,7.38
2022-11-15T05:23:57.171Z,9.32
2022-11-15T05:29:03.361Z,10.23
2022-11-15T05:34:09.073Z,6.78
2022-11-15T05:39:16.862Z,9.65
2022-11-15T05:44:26.733Z,7.85
2022-11-15T05:49:34.512Z,10.80
2022-11-15T05:54:42.624Z,9.70
2022-11-15T05:59:48.040Z,7.63
2022-11-15T06:04:53.004Z,9.60
2022-11-15T06:10:00.558Z,8.13
2022-11-15T06:15:05.544Z,6.43
2022-11-15T06:20:11.569Z,7.90
2022-11-15T06:25:19.347Z,7.60
2022-11-15T06:30:24.669Z,7.22
2022-11-15T06:35:29.685Z,9.15
2022-11-15T06:40:37.978Z,13.38
2022-11-15T06:45:43.017Z,19.48
2022-11-15T06:50:54.729Z,11.57
2022-11-15T06:56:05.792Z,8.88
2022-11-15T07:01:12.412Z,10.63
2022-11-15T07:06:18.716Z,7.90
2022-11-15T07:11:26.369Z,7.65
2022-11-15T07:16:31.341Z,8.48
2022-11-15T07:21:36.922Z,10.00
2022-11-15T07:26:44.535Z,7.97
2022-11-15T07:31:49.922Z,12.10
2022-11-15T07:36:54.970Z,7.65
2022-11-15T07:42:15.348Z,13.00
2022-11-15T07:47:20.328Z,10.52
2022-11-15T07:52:25.339Z,9.25
2022-11-15T07:57:33.593Z,13.90
2022-11-15T08:02:38.619Z,13.13
2022-11-15T08:07:44.134Z,16.50
2022-11-15T08:12:51.861Z,12.18
2022-11-15T08:18:00.200Z,29.80
2022-11-15T08:23:07.096Z,12.60
2022-11-15T08:28:15.235Z,11.63
2022-11-15T08:33:20.672Z,13.40
2022-11-15T08:38:25.677Z,10.20
2022-11-15T08:43:33.568Z,30.65
2022-11-15T08:48:38.816Z,12.70
2022-11-15T08:53:43.939Z,13.95
2022-11-15T08:58:51.514Z,13.65
2022-11-15T09:03:59.356Z,16.02
2022-11-15T09:09:05.259Z,19.58
2022-11-15T09:14:14.929Z,11.73
2022-11-15T09:19:19.906Z,10.05
2022-11-15T09:24:24.926Z,8.90
2022-11-15T09:29:32.501Z,12.48
2022-11-15T09:34:37.849Z,14.45
2022-11-15T09:39:42.817Z,13.93
2022-11-15T09:44:59.150Z,11.82
2022-11-15T09:50:05.705Z,11.23
2022-11-15T09:55:15.230Z,14.70
2022-11-15T10:00:46.094Z,12.13
2022-11-15T10:05:51.388Z,11.18
2022-11-15T10:11:22.837Z,10.23
2022-11-15T10:16:46.134Z,13.57
2022-11-15T10:21:56.402Z,14.52
2022-11-15T10:27:01.385Z,12.40
2022-11-15T10:32:09.049Z,11.32
2022-11-15T10:37:14.141Z,19.73
2022-11-15T10:42:20.941Z,14.95
2022-11-15T10:47:38.848Z,12.45
2022-11-15T10:52:49.990Z,17.52
2022-11-15T10:57:56.925Z,13.95
2022-11-15T11:03:06.925Z,17.58
2022-11-15T11:13:30.498Z,15.30
2022-11-15T11:18:41.290Z,19.05
2022-11-15T11:23:53.130Z,15.30
2022-11-15T11:29:03.715Z,20.23
2022-11-15T11:34:19.219Z,23.80
2022-11-15T11:39:29.967Z,28.90
2022-11-15T11:44:44.464Z,27.65
2022-11-15T11:49:54.755Z,22.40
2022-11-15T11:55:05.051Z,19.50
2022-11-15T12:00:20.349Z,17.35
2022-11-15T12:05:33.420Z,26.30
2022-11-15T12:10:38.746Z,22.48
2022-11-15T12:15:47.674Z,22.65
2022-11-15T12:20:58.971Z,26.17
2022-11-15T12:26:06.014Z,21.92
2022-11-15T12:31:17.407Z,22.25
2022-11-15T12:36:40.019Z,33.53
2022-11-15T12:41:45.702Z,25.45
2022-11-15T12:47:08.167Z,26.52
2022-11-15T12:52:15.774Z,25.08
2022-11-15T12:57:40.452Z,24.40
2022-11-15T13:02:49.671Z,20.98
2022-11-15T13:08:03.290Z,22.17
2022-11-15T13:13:11.843Z,25.40
2022-11-15T13:18:41.553Z,25.67
2022-11-15T13:23:49.492Z,24.20
2022-11-15T13:28:57.086Z,26.85
2022-11-15T13:34:13.632Z,28.08
2022-11-15T13:39:34.959Z,26.83
2022-11-15T13:44:39.975Z,26.05
2022-11-15T13:49:45.525Z,27.13
2022-11-15T13:55:00.118Z,24.85
2022-11-15T14:00:08.263Z,27.45
2022-11-15T14:05:19.992Z,33.72
2022-11-15T14:10:33.590Z,37.85
2022-11-15T14:15:39.902Z,42.42
2022-11-15T14:20:44.916Z,58.72
2022-11-15T14:25:59.822Z,50.88
2022-11-15T14:31:04.877Z,42.05
2022-11-15T14:36:15.691Z,46.90
2022-11-15T14:41:26.015Z,44.88
2022-11-15T14:46:31.036Z,54.78
2022-11-15T14:51:36.910Z,49.78
2022-11-15T14:56:44.501Z,70.90
2022-11-15T15:01:49.512Z,87.50
2022-11-15T15:06:54.674Z,221.65
2022-11-15T15:12:06.348Z,260.85
2022-11-15T15:17:11.628Z,67.65
2022-11-15T15:22:18.822Z,42.92
2022-11-15T15:27:28.668Z,77.47
2022-11-15T15:32:33.657Z,99.53
2022-11-15T15:37:38.934Z,102.53
2022-11-15T15:42:46.564Z,94.85
2022-11-15T15:47:53.206Z,46.72
2022-11-15T15:52:59.569Z,53.88
2022-11-15T15:58:07.801Z,49.90
2022-11-15T16:03:12.794Z,52.45
2022-11-15T16:08:22.374Z,54.13
2022-11-15T16:13:29.965Z,114.57
2022-11-15T16:18:35.869Z,168.15
2022-11-15T16:23:40.997Z,126.07
2022-11-15T16:28:48.579Z,113.85
2022-11-15T16:33:53.591Z,114.15
2022-11-15T16:38:58.636Z,118.90
2022-11-15T16:44:06.261Z,146.10
2022-11-15T16:49:15.769Z,147.65
2022-11-15T16:54:20.785Z,152.53
2022-11-15T16:59:28.656Z,175.32
2022-11-15T17:04:35.407Z,154.27
2022-11-15T17:09:40.561Z,143.48
2022-11-15T17:14:48.678Z,160.15
2022-11-15T17:19:53.729Z,141.88
2022-11-15T17:24:58.722Z,145.07
2022-11-15T17:30:07.601Z,165.15
2022-11-15T17:35:15.648Z,216.27
2022-11-15T17:40:21.137Z,208.25
2022-11-15T17:45:28.721Z,208.45
2022-11-15T17:50:33.697Z,250.88
2022-11-15T17:55:38.773Z,403.83
2022-11-15T18:00:46.538Z,347.90
2022-11-15T18:05:51.571Z,319.65
2022-11-15T18:11:05.505Z,252.18
2022-11-15T18:16:15.633Z,243.23
2022-11-15T18:21:22.465Z,233.43
2022-11-15T18:26:29.637Z,209.80
2022-11-15T18:31:37.276Z,201.65
2022-11-15T18:36:42.945Z,193.75
2022-11-15T18:41:49.550Z,182.77
2022-11-15T18:46:57.173Z,196.13
2022-11-15T18:52:02.240Z,192.00
2022-11-15T18:57:08.188Z,193.05
2022-11-15T19:02:16.937Z,199.23
2022-11-15T19:07:21.963Z,204.40
2022-11-15T19:12:27.503Z,233.52
2022-11-15T19:17:35.243Z,230.05
2022-11-15T19:22:40.225Z,231.50
2022-11-15T19:27:45.245Z,171.25
2022-11-15T19:32:52.837Z,92.38
2022-11-15T19:37:57.926Z,67.18
2022-11-15T19:43:03.139Z,58.15
2022-11-15T19:48:10.841Z,59.50
2022-11-15T19:53:15.970Z,45.67
2022-11-15T19:58:21.233Z,49.25
2022-11-15T20:03:28.922Z,47.33
2022-11-15T20:08:34.292Z,54.38
2022-11-15T20:13:39.658Z,45.63
2022-11-15T20:18:47.818Z,43.75
2022-11-15T20:23:53.249Z,47.05
2022-11-15T20:29:01.454Z,48.15
2022-11-15T20:34:09.809Z,45.40
2022-11-15T20:39:15.146Z,54.85
2022-11-15T20:44:20.302Z,38.13
2022-11-15T20:49:28.545Z,41.47
2022-11-15T20:54:33.694Z,37.25
2022-11-15T20:59:41.602Z,35.28
2022-11-15T21:04:49.234Z,32.15
2022-11-15T21:10:06.662Z,311.63
2022-11-15T21:15:12.649Z,82.25
2022-11-15T21:20:20.635Z,27.65
2022-11-15T21:25:25.665Z,32.35
2022-11-15T21:30:31.446Z,27.85
2022-11-15T21:35:39.281Z,27.40
2022-11-15T21:40:44.458Z,31.02
2022-11-15T21:46:14.712Z,29.60
2022-11-15T21:51:22.744Z,26.40
2022-11-15T21:56:28.999Z,32.92
2022-11-15T22:01:46.632Z,39.53
2022-11-15T22:06:54.794Z,34.97
2022-11-15T22:11:59.842Z,38.10
2022-11-15T22:17:04.924Z,40.55
2022-11-15T22:22:12.706Z,31.63
2022-11-15T22:27:17.777Z,32.63
2022-11-15T22:32:23.010Z,26.10
2022-11-15T22:37:30.688Z,25.15
2022-11-15T22:42:38.833Z,26.40
2022-11-15T22:47:43.912Z,28.98
2022-11-15T22:52:51.628Z,31.27
2022-11-15T22:57:56.803Z,31.25
2022-11-15T23:03:01.899Z,36.28
2022-11-15T23:08:10.813Z,36.75
2022-11-15T23:13:19.772Z,30.38
2022-11-15T23:18:24.936Z,39.08
2022-11-15T23:23:33.025Z,37.15
2022-11-15T23:28:38.276Z,43.10
2022-11-15T23:33:55.618Z,41.33
2022-11-15T23:39:04.045Z,44.88
2022-11-15T23:44:09.196Z,45.10
2022-11-15T23:49:14.273Z,48.58
2022-11-15T23:54:22.014Z,48.00
2022-11-15T23:59:27.169Z,51.67
